createdAt,value
2022-11-02T00:01:24.523Z,4.50
2022-11-02T00:03:27.189Z,4.20
2022-11-02T00:05:31.096Z,4.90
2022-11-02T00:07:33.652Z,4.90
2022-11-02T00:09:39.726Z,4.07
2022-11-02T00:11:42.326Z,4.37
2022-11-02T00:13:44.908Z,4.30
2022-11-02T00:15:47.727Z,4.97
2022-11-02T00:17:59.888Z,5.10
2022-11-02T00:20:05.315Z,4.40
2022-11-02T00:22:07.934Z,4.37
2022-11-02T00:24:12.610Z,4.73
2022-11-02T00:26:15.867Z,4.13
2022-11-02T00:28:19.066Z,3.83
2022-11-02T00:30:22.531Z,3.87
2022-11-02T00:32:27.065Z,4.43
2022-11-02T00:34:29.716Z,3.83
2022-11-02T00:36:32.310Z,3.27
2022-11-02T00:38:34.879Z,4.13
2022-11-02T00:40:37.471Z,3.90
2022-11-02T00:42:40.067Z,3.90
2022-11-02T00:44:42.896Z,3.97
2022-11-02T00:46:45.549Z,3.70
2022-11-02T00:48:48.261Z,3.90
2022-11-02T00:50:50.831Z,3.23
2022-11-02T00:52:55.104Z,3.43
2022-11-02T00:54:59.466Z,3.80
2022-11-02T00:59:05.286Z,2.80
2022-11-02T01:01:08.818Z,3.33
2022-11-02T01:03:12.161Z,3.43
2022-11-02T01:05:14.695Z,3.37
2022-11-02T01:07:17.293Z,3.50
2022-11-02T01:09:19.928Z,2.90
2022-11-02T01:11:24.534Z,2.83
2022-11-02T01:13:27.145Z,3.30
2022-11-02T01:15:29.735Z,2.70
2022-11-02T01:17:49.798Z,2.97
2022-11-02T01:19:52.361Z,3.33
2022-11-02T01:21:54.921Z,3.77
2022-11-02T01:23:57.522Z,3.07
2022-11-02T01:26:04.803Z,3.70
2022-11-02T01:28:07.478Z,3.50
2022-11-02T01:30:11.008Z,3.77
2022-11-02T01:32:13.561Z,3.77
2022-11-02T01:34:16.452Z,3.10
2022-11-02T01:38:27.356Z,3.87
2022-11-02T01:40:39.329Z,2.90
2022-11-02T01:42:41.963Z,3.33
2022-11-02T01:44:44.738Z,3.03
2022-11-02T01:46:47.868Z,3.40
2022-11-02T01:48:59.391Z,3.43
2022-11-02T01:51:09.570Z,3.40
2022-11-02T01:53:12.187Z,3.07
2022-11-02T01:55:22.953Z,2.97
2022-11-02T01:57:27.738Z,3.10
2022-11-02T01:59:47.613Z,3.27
2022-11-02T02:01:50.420Z,2.53
2022-11-02T02:03:54.366Z,3.33
2022-11-02T02:06:01.992Z,2.50
2022-11-02T02:08:05.380Z,2.50
2022-11-02T02:10:09.339Z,2.60
2022-11-02T02:12:14.084Z,3.00
2022-11-02T02:14:20.127Z,2.67
2022-11-02T02:17:00.615Z,2.53
2022-11-02T02:19:33.808Z,2.77
2022-11-02T02:22:06.517Z,2.60
2022-11-02T02:24:44.336Z,2.37
2022-11-02T02:27:24.149Z,3.80
2022-11-02T02:30:03.947Z,2.70
2022-11-02T02:32:43.662Z,2.43
2022-11-02T02:34:53.704Z,2.50
2022-11-02T02:37:09.601Z,2.50
2022-11-02T02:39:24.395Z,2.92
2022-11-02T02:41:43.707Z,2.40
2022-11-02T02:43:57.781Z,2.30
2022-11-02T02:46:13.029Z,2.50
2022-11-02T02:48:20.364Z,2.37
2022-11-02T02:50:29.062Z,2.80
2022-11-02T02:52:36.023Z,2.53
2022-11-02T02:54:42.888Z,2.30
2022-11-02T02:56:56.350Z,2.60
2022-11-02T02:59:06.612Z,2.03
2022-11-02T03:01:14.166Z,2.20
2022-11-02T03:03:24.419Z,2.50
2022-11-02T03:05:35.139Z,2.37
2022-11-02T03:07:39.790Z,2.30
2022-11-02T03:09:55.429Z,1.80
2022-11-02T03:12:25.337Z,2.20
2022-11-02T03:14:41.943Z,2.63
2022-11-02T03:17:20.418Z,3.30
2022-11-02T03:20:02.387Z,2.90
2022-11-02T03:22:28.992Z,2.50
2022-11-02T03:24:53.177Z,2.97
2022-11-02T03:27:18.539Z,2.60
2022-11-02T03:29:40.769Z,2.60
2022-11-02T03:32:03.945Z,4.03
2022-11-02T03:35:29.169Z,3.07
2022-11-02T03:37:42.204Z,2.83
2022-11-02T03:40:17.212Z,3.03
2022-11-02T03:42:27.418Z,3.73
2022-11-02T03:44:36.827Z,3.70
2022-11-02T03:46:43.852Z,3.50
2022-11-02T03:48:50.785Z,3.10
2022-11-02T03:50:58.732Z,3.30
2022-11-02T03:53:38.038Z,3.57
2022-11-02T03:55:47.636Z,2.97
2022-11-02T03:57:51.992Z,3.40
2022-11-02T04:00:15.873Z,3.30
2022-11-02T04:02:22.275Z,3.50
2022-11-02T04:04:25.687Z,2.93
2022-11-02T04:06:28.660Z,2.93
2022-11-02T04:08:38.240Z,3.67
2022-11-02T04:11:02.576Z,3.63
2022-11-02T04:13:23.981Z,3.40
2022-11-02T04:15:26.613Z,3.50
2022-11-02T04:17:47.923Z,3.50
2022-11-02T04:19:52.787Z,3.60
2022-11-02T04:22:15.945Z,3.73
2022-11-02T04:24:40.559Z,3.90
2022-11-02T04:26:43.914Z,3.00
2022-11-02T04:28:46.538Z,3.13
2022-11-02T04:30:49.135Z,2.63
2022-11-02T04:33:10.760Z,3.13
2022-11-02T04:35:23.805Z,2.72
2022-11-02T04:37:45.564Z,3.10
2022-11-02T04:39:48.199Z,3.50
2022-11-02T04:41:50.880Z,2.30
2022-11-02T04:43:59.834Z,2.83
2022-11-02T04:46:02.457Z,2.90
2022-11-02T04:48:08.181Z,3.27
2022-11-02T04:50:11.715Z,3.27
2022-11-02T04:52:15.521Z,3.10
2022-11-02T04:54:24.330Z,3.70
2022-11-02T04:56:36.858Z,3.40
2022-11-02T04:58:39.557Z,3.77
2022-11-02T05:00:43.092Z,2.90
2022-11-02T05:02:51.211Z,3.40
2022-11-02T05:04:56.211Z,2.37
2022-11-02T05:07:01.381Z,3.30
2022-11-02T05:09:06.568Z,4.03
2022-11-02T05:11:11.148Z,3.43
2022-11-02T05:13:13.763Z,3.05
2022-11-02T05:15:16.703Z,3.60
2022-11-02T05:17:19.376Z,3.70
2022-11-02T05:19:23.576Z,3.60
2022-11-02T05:21:26.172Z,3.63
2022-11-02T05:23:40.985Z,3.40
2022-11-02T05:25:43.590Z,3.10
2022-11-02T05:27:46.184Z,3.70
2022-11-02T05:29:49.618Z,3.20
2022-11-02T05:31:52.402Z,3.53
2022-11-02T05:33:55.798Z,3.47
2022-11-02T05:36:00.693Z,3.23
2022-11-02T05:38:04.736Z,2.73
2022-11-02T05:40:08.833Z,3.80
2022-11-02T05:42:15.916Z,3.20
2022-11-02T05:44:18.513Z,3.00
2022-11-02T05:46:21.180Z,3.60
2022-11-02T05:48:27.295Z,3.73
2022-11-02T05:50:59.691Z,3.03
2022-11-02T05:53:25.315Z,3.37
2022-11-02T05:55:28.666Z,2.67
2022-11-02T05:57:32.508Z,3.10
2022-11-02T05:59:39.185Z,3.47
2022-11-02T06:01:47.061Z,2.60
2022-11-02T06:04:07.025Z,3.17
2022-11-02T06:06:10.938Z,2.93
2022-11-02T06:08:14.570Z,3.20
2022-11-02T06:10:17.824Z,3.03
2022-11-02T06:12:46.138Z,3.00
2022-11-02T06:14:49.816Z,3.07
2022-11-02T06:16:56.063Z,2.87
2022-11-02T06:19:07.620Z,3.10
2022-11-02T06:21:10.421Z,3.00
2022-11-02T06:23:18.018Z,3.10
2022-11-02T06:25:21.645Z,3.10
2022-11-02T06:27:24.300Z,4.30
2022-11-02T06:29:28.465Z,3.67
2022-11-02T06:31:32.099Z,2.83
2022-11-02T06:33:34.771Z,3.00
2022-11-02T06:35:38.749Z,3.53
2022-11-02T06:37:41.300Z,2.53
2022-11-02T06:39:43.898Z,2.97
2022-11-02T06:41:46.411Z,2.90
2022-11-02T06:43:49.027Z,2.77
2022-11-02T06:45:56.189Z,2.90
2022-11-02T06:47:58.839Z,3.43
2022-11-02T06:50:03.883Z,3.20
2022-11-02T06:52:06.453Z,2.97
2022-11-02T06:54:09.134Z,3.30
2022-11-02T06:56:12.550Z,2.90
2022-11-02T06:58:20.382Z,3.60
2022-11-02T07:00:24.104Z,3.10
2022-11-02T07:02:26.947Z,3.40
2022-11-02T07:04:29.617Z,3.50
2022-11-02T07:06:33.333Z,3.00
2022-11-02T07:08:35.961Z,3.20
2022-11-02T07:10:38.507Z,3.60
2022-11-02T07:12:41.083Z,3.93
2022-11-02T07:14:43.602Z,2.80
2022-11-02T07:16:48.401Z,3.43
2022-11-02T07:18:51.020Z,3.20
2022-11-02T07:20:53.556Z,4.00
2022-11-02T07:22:59.162Z,3.10
2022-11-02T07:25:01.698Z,3.40
2022-11-02T07:27:04.557Z,2.93
2022-11-02T07:29:07.212Z,2.97
2022-11-02T07:31:10.692Z,2.93
2022-11-02T07:33:13.548Z,2.97
2022-11-02T07:35:17.696Z,2.73
2022-11-02T07:37:21.227Z,3.60
2022-11-02T07:39:24.556Z,3.00
2022-11-02T07:41:27.878Z,3.70
2022-11-02T07:43:32.908Z,2.97
2022-11-02T07:45:56.569Z,2.83
2022-11-02T07:47:59.290Z,2.63
2022-11-02T07:50:02.315Z,2.80
2022-11-02T07:52:05.040Z,2.90
2022-11-02T07:54:07.659Z,2.57
2022-11-02T07:56:13.373Z,2.80
2022-11-02T07:58:16.463Z,2.63
2022-11-02T08:00:20.378Z,3.17
2022-11-02T08:02:23.192Z,3.10
2022-11-02T08:04:25.912Z,2.93
2022-11-02T08:06:28.629Z,3.10
2022-11-02T08:08:31.329Z,2.30
2022-11-02T08:10:37.372Z,2.50
2022-11-02T08:12:41.542Z,2.53
2022-11-02T08:14:44.108Z,2.23
2022-11-02T08:17:42.496Z,2.30
2022-11-02T08:19:45.167Z,2.63
2022-11-02T08:21:47.932Z,2.90
2022-11-02T08:23:53.621Z,2.67
2022-11-02T08:26:00.550Z,2.03
2022-11-02T08:28:04.522Z,1.77
2022-11-02T08:30:08.109Z,1.80
2022-11-02T08:32:35.685Z,1.60
2022-11-02T08:34:39.103Z,2.17
2022-11-02T08:36:41.671Z,1.60
2022-11-02T08:38:44.216Z,2.03
2022-11-02T08:40:46.793Z,1.80
2022-11-02T08:48:44.039Z,2.53
2022-11-02T08:50:56.988Z,3.13
2022-11-02T08:52:59.526Z,2.60
2022-11-02T08:55:11.888Z,2.10
2022-11-02T08:57:14.778Z,2.47
2022-11-02T09:00:09.699Z,1.73
2022-11-02T09:02:12.373Z,2.30
2022-11-02T09:04:17.424Z,2.20
2022-11-02T09:06:20.748Z,2.17
2022-11-02T09:09:20.415Z,2.00
2022-11-02T09:11:23.102Z,3.00
2022-11-02T09:13:25.822Z,2.73
2022-11-02T09:15:30.131Z,1.63
2022-11-02T09:17:33.723Z,1.90
2022-11-02T09:19:37.430Z,2.00
2022-11-02T09:21:39.959Z,2.30
2022-11-02T09:23:42.573Z,2.67
2022-11-02T09:25:45.246Z,2.03
2022-11-02T09:27:55.776Z,2.40
2022-11-02T09:29:58.568Z,2.90
2022-11-02T09:32:08.013Z,2.40
2022-11-02T09:34:10.686Z,1.87
2022-11-02T09:36:13.532Z,2.03
2022-11-02T09:38:20.354Z,2.50
2022-11-02T09:40:32.807Z,2.30
2022-11-02T09:43:04.521Z,2.87
2022-11-02T09:45:14.223Z,1.87
2022-11-02T09:48:02.888Z,3.57
2022-11-02T09:49:49.759Z,1.77
2022-11-02T09:51:56.566Z,1.90
2022-11-02T09:54:17.716Z,2.23
2022-11-02T09:56:22.613Z,1.90
2022-11-02T09:58:35.391Z,1.87
2022-11-02T10:00:41.400Z,2.40
2022-11-02T10:03:31.396Z,2.03
2022-11-02T10:05:54.652Z,2.00
2022-11-02T10:08:40.175Z,1.83
2022-11-02T10:11:06.849Z,2.37
2022-11-02T10:13:26.615Z,2.23
2022-11-02T10:15:41.094Z,1.90
2022-11-02T10:17:47.663Z,2.50
2022-11-02T10:19:56.603Z,2.00
2022-11-02T10:22:00.458Z,2.37
2022-11-02T10:24:26.480Z,1.83
2022-11-02T10:26:33.617Z,2.00
2022-11-02T10:28:40.249Z,1.75
2022-11-02T10:30:44.850Z,1.70
2022-11-02T10:32:51.421Z,2.03
2022-11-02T10:35:37.112Z,1.83
2022-11-02T10:38:14.756Z,1.90
2022-11-02T10:40:38.710Z,2.37
2022-11-02T10:42:49.823Z,2.13
2022-11-02T10:45:25.778Z,1.63
2022-11-02T10:47:37.809Z,2.30
2022-11-02T10:50:15.649Z,2.53
2022-11-02T10:52:18.828Z,2.30
2022-11-02T10:54:26.573Z,2.27
2022-11-02T10:57:12.598Z,2.10
2022-11-02T10:59:23.655Z,2.07
2022-11-02T11:01:29.612Z,1.93
2022-11-02T11:03:32.515Z,1.67
2022-11-02T11:05:47.885Z,3.00
2022-11-02T11:07:50.487Z,2.03
2022-11-02T11:09:57.110Z,1.90
2022-11-02T11:12:06.590Z,2.27
2022-11-02T11:16:51.253Z,3.10
2022-11-02T11:21:16.726Z,2.83
2022-11-02T11:23:25.519Z,2.13
2022-11-02T11:25:28.602Z,2.50
2022-11-02T11:27:35.817Z,2.03
2022-11-02T11:29:47.613Z,1.70
2022-11-02T11:31:50.501Z,1.67
2022-11-02T11:33:56.482Z,1.73
2022-11-02T11:35:59.902Z,2.03
2022-11-02T11:38:21.840Z,2.43
2022-11-02T11:40:25.432Z,1.87
2022-11-02T11:42:33.970Z,1.53
2022-11-02T11:44:36.541Z,2.13
2022-11-02T11:46:44.532Z,2.07
2022-11-02T11:48:56.344Z,2.30
2022-11-02T11:51:01.383Z,2.30
2022-11-02T11:53:13.596Z,2.10
2022-11-02T11:55:28.910Z,2.00
2022-11-02T11:57:34.970Z,2.00
2022-11-02T11:59:44.302Z,2.33
2022-11-02T12:01:47.092Z,1.80
2022-11-02T12:04:00.873Z,1.87
2022-11-02T12:06:40.961Z,2.50
2022-11-02T12:09:04.394Z,1.87
2022-11-02T12:11:16.273Z,1.90
2022-11-02T12:13:45.131Z,1.90
2022-11-02T12:16:13.416Z,2.13
2022-11-02T12:18:44.978Z,2.50
2022-11-02T12:21:21.221Z,2.17
2022-11-02T12:23:53.601Z,1.57
2022-11-02T12:26:30.774Z,2.80
2022-11-02T12:28:59.002Z,1.80
2022-11-02T12:31:39.545Z,1.97
2022-11-02T12:33:44.995Z,2.00
2022-11-02T12:36:08.392Z,2.13
2022-11-02T12:38:46.842Z,1.40
2022-11-02T12:41:04.539Z,1.97
2022-11-02T12:43:28.132Z,1.80
2022-11-02T12:45:52.625Z,1.60
2022-11-02T12:48:05.914Z,1.47
2022-11-02T12:50:08.851Z,1.50
2022-11-02T12:52:48.582Z,1.80
2022-11-02T12:55:20.391Z,2.00
2022-11-02T12:57:27.172Z,1.30
2022-11-02T12:59:33.794Z,1.63
2022-11-02T13:02:10.395Z,2.27
2022-11-02T13:04:56.636Z,1.40
2022-11-02T13:07:11.084Z,1.20
2022-11-02T13:09:23.588Z,1.50
2022-11-02T13:11:43.659Z,1.50
2022-11-02T13:14:04.604Z,2.37
2022-11-02T13:16:10.633Z,1.60
2022-11-02T13:18:33.064Z,2.43
2022-11-02T13:20:48.644Z,1.50
2022-11-02T13:23:02.201Z,2.27
2022-11-02T13:25:26.317Z,1.90
2022-11-02T13:27:51.915Z,1.60
2022-11-02T13:29:58.953Z,1.40
2022-11-02T13:32:23.937Z,1.60
2022-11-02T13:34:36.923Z,1.67
2022-11-02T13:36:40.339Z,1.58
2022-11-02T13:38:53.798Z,2.30
2022-11-02T13:41:33.304Z,2.27
2022-11-02T13:44:04.430Z,1.50
2022-11-02T13:47:02.625Z,1.67
2022-11-02T13:49:25.803Z,1.67
2022-11-02T13:51:41.438Z,1.70
2022-11-02T13:53:56.054Z,1.80
2022-11-02T13:56:09.830Z,2.00
2022-11-02T13:58:28.179Z,1.57
2022-11-02T14:00:45.949Z,1.70
2022-11-02T14:02:58.704Z,1.60
2022-11-02T14:05:02.064Z,1.23
2022-11-02T14:07:09.617Z,2.30
2022-11-02T14:09:42.556Z,1.53
2022-11-02T14:11:46.463Z,1.70
2022-11-02T14:13:54.679Z,1.80
2022-11-02T14:15:57.400Z,1.83
2022-11-02T14:18:13.775Z,1.50
2022-11-02T14:20:43.771Z,1.90
2022-11-02T14:23:10.705Z,1.60
2022-11-02T14:25:16.324Z,1.40
2022-11-02T14:27:20.177Z,1.40
2022-11-02T14:29:52.277Z,1.90
2022-11-02T14:32:00.923Z,1.63
2022-11-02T14:34:50.528Z,1.57
2022-11-02T14:37:23.386Z,1.50
2022-11-02T14:39:53.755Z,1.23
2022-11-02T14:42:25.663Z,1.33
2022-11-02T14:44:59.533Z,1.30
2022-11-02T14:47:15.466Z,1.53
2022-11-02T14:49:23.288Z,1.77
2022-11-02T14:51:33.363Z,1.37
2022-11-02T14:54:06.460Z,1.50
2022-11-02T14:56:09.157Z,1.60
2022-11-02T14:58:23.150Z,2.50
2022-11-02T15:00:37.871Z,3.10
2022-11-02T15:02:43.215Z,5.50
2022-11-02T15:04:57.659Z,24.60
2022-11-02T15:07:03.770Z,27.20
2022-11-02T15:09:06.440Z,11.50
2022-11-02T15:11:51.506Z,5.90
2022-11-02T15:13:54.193Z,3.50
2022-11-02T15:15:56.633Z,2.55
2022-11-02T15:18:22.744Z,4.30
2022-11-02T15:20:33.729Z,4.63
2022-11-02T15:22:42.147Z,7.27
2022-11-02T15:24:45.561Z,7.73
2022-11-02T15:26:59.524Z,8.40
2022-11-02T15:29:05.883Z,6.80
2022-11-02T15:31:23.189Z,10.07
2022-11-02T15:33:44.701Z,26.50
2022-11-02T15:35:48.266Z,37.07
2022-11-02T15:38:16.379Z,46.83
2022-11-02T15:40:34.936Z,44.67
2022-11-02T15:42:53.400Z,54.17
2022-11-02T15:45:49.453Z,93.00
2022-11-02T15:48:26.218Z,120.00
2022-11-02T15:50:59.735Z,105.73
2022-11-02T15:53:33.440Z,105.63
2022-11-02T15:55:43.209Z,98.47
2022-11-02T15:57:57.457Z,100.20
2022-11-02T16:15:15.131Z,63.37
2022-11-02T16:17:26.182Z,55.37
2022-11-02T16:19:28.763Z,53.37
2022-11-02T16:21:31.420Z,44.80
2022-11-02T16:23:38.214Z,44.70
2022-11-02T16:25:45.567Z,41.90
2022-11-02T16:27:48.305Z,50.38
2022-11-02T16:30:20.761Z,46.30
2022-11-02T16:32:25.293Z,39.27
2022-11-02T16:34:31.587Z,38.40
2022-11-02T16:36:38.458Z,36.47
2022-11-02T16:38:57.110Z,34.33
2022-11-02T16:41:02.592Z,31.10
2022-11-02T16:43:05.331Z,31.60
2022-11-02T16:45:31.838Z,33.23
2022-11-02T16:47:41.063Z,33.00
2022-11-02T16:49:52.206Z,33.07
2022-11-02T16:52:19.192Z,28.38
2022-11-02T16:54:33.856Z,27.07
2022-11-02T16:56:36.877Z,24.07
2022-11-02T16:58:45.828Z,19.97
2022-11-02T17:00:59.809Z,18.43
2022-11-02T17:03:15.190Z,15.10
2022-11-02T17:05:26.791Z,13.30
2022-11-02T17:07:42.277Z,10.77
2022-11-02T17:09:55.452Z,9.37
2022-11-02T17:12:35.582Z,9.60
2022-11-02T17:14:46.577Z,6.83
2022-11-02T17:17:00.610Z,6.20
2022-11-02T17:19:04.179Z,5.40
2022-11-02T17:21:12.755Z,3.97
2022-11-02T17:23:36.482Z,4.90
2022-11-02T17:25:40.751Z,5.37
2022-11-02T17:27:43.357Z,3.37
2022-11-02T17:29:45.964Z,4.00
2022-11-02T17:31:56.775Z,4.13
2022-11-02T17:34:20.452Z,3.50
2022-11-02T17:36:23.143Z,3.33
2022-11-02T17:38:27.614Z,3.93
2022-11-02T17:40:30.194Z,3.50
2022-11-02T17:42:51.498Z,2.80
2022-11-02T17:44:54.000Z,3.30
2022-11-02T17:46:56.622Z,2.40
2022-11-02T17:48:59.204Z,3.27
2022-11-02T17:51:01.807Z,2.90
2022-11-02T17:53:06.020Z,2.60
2022-11-02T17:55:18.024Z,3.33
2022-11-02T17:57:21.061Z,2.75
2022-11-02T17:59:23.618Z,2.60
2022-11-02T18:01:26.509Z,2.30
2022-11-02T18:03:31.449Z,2.63
2022-11-02T18:05:37.326Z,2.70
2022-11-02T18:07:39.853Z,2.58
2022-11-02T18:09:43.205Z,2.30
2022-11-02T18:12:36.764Z,2.83
2022-11-02T18:14:40.421Z,2.40
2022-11-02T18:16:43.736Z,2.20
2022-11-02T18:18:46.293Z,2.83
2022-11-02T18:20:48.976Z,2.30
2022-11-02T18:23:05.932Z,2.80
2022-11-02T18:25:13.502Z,3.23
2022-11-02T18:27:16.151Z,2.27
2022-11-02T18:29:18.709Z,3.17
2022-11-02T18:31:21.324Z,3.03
2022-11-02T18:33:23.858Z,3.23
2022-11-02T18:35:26.486Z,2.90
2022-11-02T18:37:32.635Z,3.00
2022-11-02T18:39:56.747Z,2.57
2022-11-02T18:41:59.260Z,3.00
2022-11-02T18:44:08.842Z,3.17
2022-11-02T18:46:14.388Z,3.60
2022-11-02T18:48:35.361Z,3.00
2022-11-02T18:50:37.957Z,3.03
2022-11-02T18:52:42.214Z,3.30
2022-11-02T18:54:57.215Z,3.40
2022-11-02T18:56:59.955Z,3.17
2022-11-02T18:59:02.550Z,3.42
2022-11-02T19:01:13.226Z,3.27
2022-11-02T19:03:18.113Z,2.97
2022-11-02T19:05:39.247Z,2.93
2022-11-02T19:08:00.156Z,2.67
2022-11-02T19:10:06.546Z,3.10
2022-11-02T19:12:19.050Z,2.93
2022-11-02T19:14:22.983Z,2.93
2022-11-02T19:16:25.679Z,2.80
2022-11-02T19:18:28.219Z,2.83
2022-11-02T19:20:30.889Z,2.80
2022-11-02T19:22:33.501Z,2.10
2022-11-02T19:24:36.191Z,2.60
2022-11-02T19:27:04.366Z,2.50
2022-11-02T19:29:07.449Z,3.20
2022-11-02T19:31:09.997Z,2.77
2022-11-02T19:33:12.597Z,3.60
2022-11-02T19:35:15.463Z,3.13
2022-11-02T19:37:18.279Z,2.83
2022-11-02T19:39:20.841Z,2.80
2022-11-02T19:41:23.938Z,3.23
2022-11-02T19:43:26.535Z,3.23
2022-11-02T19:45:29.093Z,3.60
2022-11-02T19:47:31.695Z,3.10
2022-11-02T19:49:34.282Z,3.80
2022-11-02T19:51:36.887Z,2.80
2022-11-02T19:53:41.117Z,2.87
2022-11-02T19:55:52.802Z,3.73
2022-11-02T19:57:55.597Z,3.77
2022-11-02T19:59:58.249Z,3.40
2022-11-02T20:02:00.935Z,4.40
2022-11-02T20:04:04.370Z,3.53
2022-11-02T20:06:10.972Z,3.83
2022-11-02T20:08:17.497Z,3.97
2022-11-02T20:10:21.306Z,3.43
2022-11-02T20:12:23.847Z,3.27
2022-11-02T20:14:26.453Z,3.40
2022-11-02T20:16:29.512Z,3.70
2022-11-02T20:18:35.085Z,3.20
2022-11-02T20:20:37.659Z,3.70
2022-11-02T20:22:40.162Z,3.10
2022-11-02T20:24:42.674Z,3.57
2022-11-02T20:26:45.279Z,4.20
2022-11-02T20:28:48.520Z,3.73
2022-11-02T20:30:51.184Z,5.03
2022-11-02T20:32:53.727Z,4.03
2022-11-02T20:34:56.282Z,4.63
2022-11-02T20:36:58.870Z,4.67
2022-11-02T20:39:04.572Z,3.47
2022-11-02T20:41:09.169Z,4.23
2022-11-02T20:43:11.677Z,3.73
2022-11-02T20:45:16.245Z,4.17
2022-11-02T20:47:18.925Z,3.87
2022-11-02T20:49:44.265Z,7.13
2022-11-02T20:51:45.367Z,8.93
2022-11-02T20:53:49.110Z,13.90
2022-11-02T20:55:52.102Z,17.07
2022-11-02T20:57:54.712Z,16.73
2022-11-02T20:59:57.297Z,16.70
2022-11-02T21:02:00.068Z,15.00
2022-11-02T21:04:03.043Z,13.33
2022-11-02T21:06:06.463Z,11.90
2022-11-02T21:08:09.029Z,12.07
2022-11-02T21:10:11.690Z,11.00
2022-11-02T21:12:33.748Z,8.97
2022-11-02T21:14:36.327Z,9.13
2022-11-02T21:16:38.835Z,8.20
2022-11-02T21:18:42.090Z,8.43
2022-11-02T21:20:44.746Z,7.87
2022-11-02T21:22:50.418Z,7.07
2022-11-02T21:24:53.011Z,6.67
2022-11-02T21:28:17.138Z,6.60
2022-11-02T21:30:21.317Z,6.03
2022-11-02T21:32:23.878Z,5.90
2022-11-02T21:34:26.720Z,5.43
2022-11-02T21:37:56.010Z,4.70
2022-11-02T21:39:58.549Z,5.70
2022-11-02T21:42:01.894Z,5.80
2022-11-02T21:44:05.823Z,4.77
2022-11-02T21:46:08.685Z,5.30
2022-11-02T21:48:11.216Z,4.87
2022-11-02T21:50:31.878Z,5.27
2022-11-02T21:52:41.054Z,4.93
2022-11-02T21:54:46.767Z,4.37
2022-11-02T21:56:50.385Z,4.80
2022-11-02T21:58:54.697Z,3.77
2022-11-02T22:01:35.906Z,4.63
2022-11-02T22:03:38.485Z,3.70
2022-11-02T22:05:56.532Z,3.90
2022-11-02T22:08:17.993Z,3.78
2022-11-02T22:10:20.997Z,3.23
2022-11-02T22:12:42.824Z,3.55
2022-11-02T22:14:45.505Z,3.40
2022-11-02T22:16:48.129Z,3.40
2022-11-02T22:18:53.950Z,3.40
2022-11-02T22:20:56.574Z,3.30
2022-11-02T22:22:59.057Z,3.55
2022-11-02T22:25:01.629Z,3.97
2022-11-02T22:27:04.294Z,2.97
2022-11-02T22:29:07.316Z,3.43
2022-11-02T22:31:36.657Z,3.60
2022-11-02T22:33:39.646Z,3.23
2022-11-02T22:36:06.234Z,4.00
2022-11-02T22:38:48.669Z,3.33
2022-11-02T22:41:10.281Z,3.27
2022-11-02T22:43:12.817Z,3.53
2022-11-02T22:45:15.614Z,3.87
2022-11-02T22:47:18.186Z,3.17
2022-11-02T22:49:20.749Z,3.70
2022-11-02T22:51:26.279Z,4.00
2022-11-02T22:53:28.871Z,4.10
2022-11-02T22:55:38.452Z,3.50
2022-11-02T22:57:41.057Z,4.10
2022-11-02T22:59:43.620Z,4.00
2022-11-02T23:01:46.350Z,3.60
2022-11-02T23:03:50.027Z,4.97
2022-11-02T23:06:23.007Z,4.83
2022-11-02T23:10:53.643Z,4.83
2022-11-02T23:12:57.249Z,4.00
2022-11-02T23:14:59.805Z,4.90
2022-11-02T23:17:28.826Z,4.40
2022-11-02T23:19:31.905Z,4.10
2022-11-02T23:22:27.362Z,4.63
2022-11-02T23:24:49.522Z,4.83
2022-11-02T23:27:21.415Z,3.73
2022-11-02T23:29:42.702Z,5.00
2022-11-02T23:32:03.537Z,4.20
2022-11-02T23:34:06.082Z,4.00
2022-11-02T23:36:12.750Z,4.40
2022-11-02T23:38:15.770Z,4.03
2022-11-02T23:40:19.184Z,4.07
2022-11-02T23:42:24.948Z,4.07
2022-11-02T23:44:29.243Z,3.20
2022-11-02T23:46:31.771Z,4.40
2022-11-02T23:48:34.462Z,3.53
2022-11-02T23:50:55.920Z,4.17
2022-11-02T23:53:17.144Z,3.83
2022-11-02T23:55:38.179Z,3.17
2022-11-02T23:57:40.753Z,3.50
2022-11-02T23:59:43.255Z,3.53
